Time;durP1;ratioP1;P1;durP2;ratioP2;P2;SDS_P1;SDS_P2;PMS_P1;PMS_P2;Temp;Humidity;BMP_temperature;BMP_pressure;BME280_temperature;BME280_humidity;BME280_pressure;Samples;Min_cycle;Max_cycle;Signal;HPM_P1;HPM_P2
2021/05/10 00:00:50;;;;;;;9.40;4.85;;;;;;;15.33;49.13;99754.81;5038560;27;97785;-74
2021/05/10 00:03:16;;;;;;;12.77;6.13;;;;;;;15.34;49.32;99765.31;5037470;27;96587;-70
2021/05/10 00:05:42;;;;;;;12.73;5.45;;;;;;;15.37;49.39;99762.47;5055472;27;96719;-73
2021/05/10 00:08:08;;;;;;;10.13;4.93;;;;;;;15.37;49.37;99756.34;5037496;27;99218;-72
2021/05/10 00:10:34;;;;;;;13.55;4.65;;;;;;;15.19;49.96;99755.69;5072268;27;99472;-74
2021/05/10 00:13:00;;;;;;;8.82;4.95;;;;;;;15.20;49.32;99752.09;5038485;27;96559;-73
2021/05/10 00:15:26;;;;;;;9.15;4.93;;;;;;;15.11;49.50;99745.59;5072709;27;96754;-73
2021/05/10 00:17:51;;;;;;;8.82;5.65;;;;;;;15.07;49.98;99756.47;5037651;27;99360;-72
2021/05/10 00:20:17;;;;;;;12.55;5.43;;;;;;;15.01;49.61;99749.75;5072486;27;97915;-72
2021/05/10 00:22:43;;;;;;;9.60;5.10;;;;;;;15.01;49.76;99757.69;5038329;27;96903;-73
2021/05/10 00:25:08;;;;;;;9.35;5.55;;;;;;;15.06;49.70;99752.94;5077206;27;96834;-73
2021/05/10 00:27:35;;;;;;;8.55;4.60;;;;;;;15.08;49.61;99751.06;5057247;27;98447;-73
2021/05/10 00:30:00;;;;;;;11.15;5.07;;;;;;;15.10;49.77;99756.28;5041101;27;101188;-73
2021/05/10 00:32:26;;;;;;;10.70;5.38;;;;;;;15.09;49.44;99754.56;5039816;27;97128;-73
2021/05/10 00:34:52;;;;;;;9.32;5.03;;;;;;;15.02;49.25;99762.03;5058438;27;96882;-73
2021/05/10 00:37:18;;;;;;;9.43;5.25;;;;;;;14.94;49.84;99753.69;5057156;27;101291;-69
2021/05/10 00:39:44;;;;;;;8.75;4.88;;;;;;;14.97;50.01;99760.59;5057886;27;100894;-73
2021/05/10 00:42:10;;;;;;;10.73;5.10;;;;;;;14.88;49.59;99760.22;5040178;27;100481;-73
2021/05/10 00:44:35;;;;;;;9.88;5.43;;;;;;;14.83;50.37;99766.72;5057383;27;97222;-72
2021/05/10 00:47:01;;;;;;;11.05;5.07;;;;;;;14.77;50.29;99765.28;5075892;27;99322;-73
2021/05/10 00:49:27;;;;;;;8.05;4.95;;;;;;;14.68;50.32;99763.19;5075835;27;97729;-73
2021/05/10 00:51:52;;;;;;;9.23;5.13;;;;;;;14.66;50.41;99759.78;5041453;27;97460;-73
2021/05/10 00:54:18;;;;;;;9.98;5.03;;;;;;;14.75;50.23;99755.75;5057714;27;97081;-70
2021/05/10 00:56:43;;;;;;;10.35;4.88;;;;;;;14.67;50.11;99765.00;5056773;27;99791;-73
2021/05/10 00:59:09;;;;;;;11.45;5.60;;;;;;;14.68;50.10;99761.41;5057567;27;99315;-73
2021/05/10 01:01:35;;;;;;;7.50;4.50;;;;;;;14.64;49.97;99759.06;5056973;27;96571;-73
2021/05/10 01:04:01;;;;;;;9.15;5.63;;;;;;;14.55;50.60;99754.31;5057854;27;97325;-73
2021/05/10 01:06:26;;;;;;;11.52;5.18;;;;;;;14.52;50.85;99755.34;5074933;27;99806;-73
2021/05/10 01:08:52;;;;;;;9.63;5.10;;;;;;;14.42;50.64;99755.00;5057313;27;97974;-73
2021/05/10 01:11:17;;;;;;;9.45;4.97;;;;;;;14.55;50.86;99755.16;5057710;27;96658;-70
2021/05/10 01:13:44;;;;;;;8.90;4.97;;;;;;;14.50;50.42;99760.69;5057546;27;97000;-73
2021/05/10 01:16:09;;;;;;;9.95;4.82;;;;;;;14.46;50.76;99753.91;5040209;27;101068;-73
2021/05/10 01:18:35;;;;;;;11.60;5.95;;;;;;;14.43;50.28;99754.06;5056675;27;98415;-73
2021/05/10 01:21:03;;;;;;;8.85;4.95;;;;;;;14.48;50.40;99753.78;5040180;27;96605;-72
2021/05/10 01:23:29;;;;;;;7.63;5.00;;;;;;;14.34;50.60;99749.34;5056834;27;96797;-72
2021/05/10 01:25:55;;;;;;;15.13;5.43;;;;;;;14.26;50.59;99749.78;5040709;27;97455;-73
2021/05/10 01:28:21;;;;;;;10.13;5.57;;;;;;;14.35;50.43;99751.03;5039717;27;97881;-70
2021/05/10 01:30:50;;;;;;;13.20;5.78;;;;;;;14.13;50.05;99738.22;5057194;27;96637;-72
2021/05/10 01:33:18;;;;;;;9.35;5.18;;;;;;;14.27;50.16;99740.06;5041057;27;96985;-73
2021/05/10 01:35:46;;;;;;;20.15;15.50;;;;;;;14.17;50.75;99744.19;5056627;27;98530;-73
2021/05/10 01:38:13;;;;;;;10.25;6.50;;;;;;;14.15;50.09;99738.13;5057483;27;99182;-73
2021/05/10 01:40:38;;;;;;;11.10;7.47;;;;;;;14.11;50.05;99736.59;5056327;27;96624;-72
2021/05/10 01:43:04;;;;;;;12.10;6.95;;;;;;;13.95;50.57;99731.38;5057354;27;96906;-73
2021/05/10 01:45:30;;;;;;;12.43;6.65;;;;;;;14.04;49.96;99726.41;5055893;27;98062;-72
2021/05/10 01:48:07;;;;;;;12.70;6.85;;;;;;;13.98;50.18;99721.47;5056860;27;101305;-73
2021/05/10 01:50:33;;;;;;;11.70;6.05;;;;;;;13.98;49.63;99725.91;5074762;27;97236;-73
2021/05/10 01:52:59;;;;;;;13.10;6.72;;;;;;;13.95;49.33;99724.28;5040153;27;97324;-73
2021/05/10 01:55:25;;;;;;;10.13;5.82;;;;;;;14.05;49.44;99732.56;5074367;27;97914;-72
2021/05/10 01:57:56;;;;;;;16.85;6.40;;;;;;;14.07;49.29;99729.81;5056964;27;98329;-73
2021/05/10 02:00:26;;;;;;;11.82;5.80;;;;;;;14.05;49.27;99716.72;5056806;27;96561;-70
2021/05/10 02:02:57;;;;;;;9.67;6.27;;;;;;;14.08;49.49;99723.59;5040877;27;96633;-72
2021/05/10 02:05:23;;;;;;;14.95;7.47;;;;;;;13.98;48.97;99718.84;5022384;27;97387;-70
2021/05/10 02:07:54;;;;;;;12.27;6.72;;;;;;;14.02;48.90;99717.75;5056311;27;100296;-73
2021/05/10 02:10:24;;;;;;;11.93;6.07;;;;;;;14.04;49.17;99723.75;5039480;27;97187;-73
2021/05/10 02:13:01;;;;;;;10.57;6.05;;;;;;;14.02;49.09;99725.66;5057117;27;96609;-73
2021/05/10 02:15:29;;;;;;;10.57;5.80;;;;;;;13.90;48.91;99725.50;5055579;27;99594;-73
2021/05/10 02:17:55;;;;;;;10.88;9.52;;;;;;;13.97;49.26;99729.50;5056513;27;97956;-73
2021/05/10 02:20:22;;;;;;;13.90;7.65;;;;;;;14.01;48.51;99736.28;5039488;27;96618;-72
2021/05/10 02:23:15;;;;;;;15.27;9.82;;;;;;;14.05;48.88;99735.19;5056541;27;96888;-73
2021/05/10 02:25:53;;;;;;;15.60;12.55;;;;;;;14.02;49.49;99735.34;5047597;27;98042;-73
2021/05/10 02:28:23;;;;;;;11.95;9.80;;;;;;;14.02;50.33;99733.56;5056973;27;98177;-73
2021/05/10 02:30:49;;;;;;;15.13;8.90;;;;;;;14.03;49.43;99729.16;5022491;27;96664;-72
2021/05/10 02:33:17;;;;;;;11.82;7.03;;;;;;;13.98;49.02;99721.47;5039701;27;96814;-73
2021/05/10 02:35:44;;;;;;;15.85;9.80;;;;;;;14.00;49.91;99727.53;5054740;27;99816;-73
2021/05/10 02:38:10;;;;;;;14.13;8.10;;;;;;;13.98;50.30;99728.56;5056278;27;97862;-73
2021/05/10 02:40:36;;;;;;;14.13;8.10;;;;;;;13.94;50.89;99721.75;5073982;27;96986;-72
2021/05/10 02:43:05;;;;;;;9.75;6.68;;;;;;;13.94;50.03;99727.03;5039603;27;97125;-73
2021/05/10 02:45:31;;;;;;;15.77;8.65;;;;;;;13.94;50.10;99721.75;5037968;27;98024;-72
2021/05/10 02:47:57;;;;;;;24.55;11.60;;;;;;;13.94;50.38;99735.81;5056049;27;97792;-73
2021/05/10 02:50:24;;;;;;;16.58;8.25;;;;;;;13.89;49.31;99732.56;5073791;27;97147;-73
2021/05/10 02:52:51;;;;;;;29.13;14.80;;;;;;;13.87;50.48;99742.34;5056175;27;96736;-73
2021/05/10 02:55:17;;;;;;;22.77;10.93;;;;;;;13.87;50.57;99741.50;5021913;27;99112;-74
2021/05/10 02:57:44;;;;;;;31.08;15.15;;;;;;;13.85;50.61;99740.75;5037920;27;101434;-73
2021/05/10 03:00:12;;;;;;;30.20;12.77;;;;;;;13.87;51.25;99728.31;5055855;27;96483;-72
2021/05/10 03:02:37;;;;;;;23.00;11.13;;;;;;;13.86;51.07;99748.56;5055343;27;96767;-73
2021/05/10 03:05:07;;;;;;;21.95;9.32;;;;;;;13.86;51.70;99737.19;5038598;27;98117;-73
2021/05/10 03:07:34;;;;;;;18.27;10.13;;;;;;;13.86;51.12;99731.91;5055481;27;97403;-72
2021/05/10 03:10:00;;;;;;;20.40;11.90;;;;;;;13.83;51.09;99738.19;5056185;27;97049;-73
2021/05/10 03:12:26;;;;;;;18.88;12.95;;;;;;;13.84;50.05;99739.03;5074064;27;97760;-72
2021/05/10 03:14:51;;;;;;;22.27;11.27;;;;;;;13.77;50.85;99738.53;5038253;27;97864;-73
2021/05/10 03:17:17;;;;;;;18.13;13.75;;;;;;;13.73;50.98;99735.22;5056106;27;97816;-73
2021/05/10 03:19:43;;;;;;;16.13;10.02;;;;;;;13.78;50.39;99745.50;5073178;27;97021;-72
2021/05/10 03:22:08;;;;;;;18.42;6.40;;;;;;;13.79;51.00;99748.06;5056080;27;97159;-73
2021/05/10 03:24:34;;;;;;;11.52;5.88;;;;;;;13.85;51.29;99751.31;5054560;27;97921;-73
2021/05/10 03:26:59;;;;;;;12.88;4.95;;;;;;;13.88;51.27;99745.88;5055255;27;97551;-72
2021/05/10 03:29:25;;;;;;;10.15;4.47;;;;;;;13.87;50.34;99742.34;5055763;27;96935;-72
2021/05/10 03:31:50;;;;;;;14.38;4.70;;;;;;;13.94;50.71;99748.16;5054804;27;97622;-72
2021/05/10 03:34:16;;;;;;;9.90;4.85;;;;;;;13.97;50.36;99743.53;5038569;27;97479;-73
2021/05/10 03:36:41;;;;;;;10.25;4.18;;;;;;;13.94;50.07;99738.44;5054512;27;97805;-73
2021/05/10 03:39:07;;;;;;;12.57;4.63;;;;;;;14.00;50.22;99742.50;5055488;27;96657;-72
2021/05/10 03:41:32;;;;;;;9.85;5.03;;;;;;;14.06;49.93;99743.97;5059558;27;96786;-72
2021/05/10 03:43:58;;;;;;;11.68;4.10;;;;;;;14.12;48.96;99748.88;5073433;27;98134;-72
2021/05/10 03:46:25;;;;;;;12.30;3.80;;;;;;;14.14;48.42;99744.38;5072390;27;97750;-73
2021/05/10 03:48:50;;;;;;;7.28;3.70;;;;;;;14.25;48.72;99748.09;5054091;27;96682;-72
2021/05/10 03:51:16;;;;;;;11.13;4.18;;;;;;;14.34;48.49;99743.19;5072659;27;96810;-73
2021/05/10 03:53:42;;;;;;;7.35;4.10;;;;;;;14.40;48.43;99737.56;5071190;27;100983;-72
2021/05/10 03:56:09;;;;;;;6.88;3.50;;;;;;;14.38;48.01;99732.38;5072162;27;98348;-73
2021/05/10 03:58:35;;;;;;;5.18;3.10;;;;;;;14.50;47.59;99744.00;5056225;27;96610;-72
2021/05/10 04:01:01;;;;;;;6.70;3.47;;;;;;;14.48;47.23;99736.13;5058486;27;96790;-73
2021/05/10 04:03:31;;;;;;;6.93;3.30;;;;;;;14.55;47.01;99752.53;5076747;27;99604;-73
2021/05/10 04:06:20;;;;;;;5.03;3.45;;;;;;;14.48;46.78;99737.94;5076026;27;98177;-72
2021/05/10 04:13:34;;;;;;;7.72;3.00;;;;;;;14.65;46.63;99729.91;5059164;27;96885;-72
2021/05/10 04:14:09;;;;;;;5.72;3.00;;;;;;;14.74;45.74;99725.00;5074221;27;101433;-72
2021/05/10 04:16:35;;;;;;;7.60;3.38;;;;;;;14.76;45.49;99721.31;5074476;27;101631;-71
2021/05/10 04:19:00;;;;;;;8.52;3.53;;;;;;;14.81;45.03;99721.06;5058303;27;97278;-73
2021/05/10 04:21:26;;;;;;;7.30;3.30;;;;;;;14.80;45.23;99721.97;5075928;27;97084;-73
2021/05/10 04:23:51;;;;;;;3.22;2.38;;;;;;;14.69;45.17;99717.38;5057457;27;99708;-72
2021/05/10 04:26:17;;;;;;;12.93;2.97;;;;;;;14.85;45.19;99712.84;5075258;27;98015;-73
2021/05/10 04:28:43;;;;;;;7.47;2.78;;;;;;;15.67;43.66;99707.72;5057166;27;97077;-73
2021/05/10 04:31:08;;;;;;;5.38;2.35;;;;;;;17.58;40.01;99717.63;5076047;27;96853;-73
2021/05/10 04:33:34;;;;;;;3.60;2.40;;;;;;;20.48;35.52;99714.38;5057872;27;97445;-69
2021/05/10 04:36:00;;;;;;;4.72;2.47;;;;;;;21.73;33.19;99717.78;5074637;27;98469;-74
2021/05/10 04:38:26;;;;;;;5.72;2.20;;;;;;;21.01;33.88;99722.28;5075075;27;97208;-73
2021/05/10 04:40:54;;;;;;;6.90;2.50;;;;;;;23.00;31.24;99715.84;5056968;27;96836;-73
2021/05/10 04:43:20;;;;;;;3.88;2.40;;;;;;;22.08;32.05;99708.38;5058484;27;97613;-73
2021/05/10 04:45:45;;;;;;;6.78;2.38;;;;;;;20.95;33.61;99703.31;5039978;27;100021;-74
2021/05/10 04:48:11;;;;;;;9.30;2.80;;;;;;;20.37;34.08;99718.94;5058419;27;97105;-73
2021/05/10 04:50:37;;;;;;;6.05;2.40;;;;;;;20.08;34.58;99706.22;5057203;27;97113;-73
2021/05/10 04:53:02;;;;;;;5.90;2.17;;;;;;;21.61;32.95;99698.34;5057884;27;97920;-73
2021/05/10 04:55:28;;;;;;;3.92;1.88;;;;;;;22.89;31.05;99692.75;5040874;27;101059;-74
2021/05/10 04:57:54;;;;;;;4.28;2.10;;;;;;;23.89;29.88;99700.03;5040127;27;96634;-73
2021/05/10 05:00:20;;;;;;;3.28;2.20;;;;;;;25.00;28.62;99688.78;5040912;27;96898;-73
2021/05/10 05:02:46;;;;;;;7.82;2.45;;;;;;;25.77;27.96;99686.88;5056533;27;98135;-73
2021/05/10 05:05:12;;;;;;;4.38;2.25;;;;;;;26.29;27.84;99675.84;5057723;27;97355;-73
2021/05/10 05:07:41;;;;;;;4.43;2.47;;;;;;;27.10;26.44;99674.84;5057383;27;96727;-71
2021/05/10 05:10:10;;;;;;;2.88;2.28;;;;;;;27.73;25.48;99672.19;5057605;27;96736;-74
2021/05/10 05:12:39;;;;;;;3.85;2.45;;;;;;;28.16;25.18;99675.28;5039934;27;98065;-70
2021/05/10 05:15:09;;;;;;;3.10;2.08;;;;;;;27.60;25.68;99678.16;5057794;27;97284;-73
2021/05/10 05:17:35;;;;;;;5.90;2.20;;;;;;;27.16;26.45;99672.50;5040741;27;96571;-72
2021/05/10 05:20:02;;;;;;;4.93;2.15;;;;;;;26.42;26.65;99676.19;5057713;27;96955;-73
2021/05/10 05:22:28;;;;;;;3.83;2.38;;;;;;;25.81;27.58;99665.91;5040571;27;98098;-73
2021/05/10 05:24:56;;;;;;;7.13;2.45;;;;;;;26.67;26.79;99667.25;5056759;27;97660;-74
2021/05/10 05:27:22;;;;;;;2.40;2.20;;;;;;;26.20;26.84;99675.00;5075419;27;96449;-74
2021/05/10 05:29:47;;;;;;;3.70;1.95;;;;;;;27.07;26.00;99674.34;5039639;27;96816;-74
2021/05/10 05:32:13;;;;;;;2.92;2.20;;;;;;;26.74;26.12;99663.72;5040178;27;99421;-74
2021/05/10 05:34:39;;;;;;;3.17;2.47;;;;;;;26.82;26.41;99674.47;5057065;27;97416;-70
2021/05/10 05:37:04;;;;;;;2.90;2.10;;;;;;;26.52;26.56;99670.63;5075567;27;96473;-74
2021/05/10 05:39:30;;;;;;;6.07;2.28;;;;;;;25.50;27.77;99672.72;5057558;27;96812;-74
2021/05/10 05:41:55;;;;;;;7.57;2.20;;;;;;;27.38;25.99;99670.91;5063653;27;97304;-73
2021/05/10 05:44:21;;;;;;;4.03;2.10;;;;;;;26.96;26.23;99672.03;5057193;27;101736;-74
2021/05/10 05:46:51;;;;;;;4.85;1.98;;;;;;;28.14;25.20;99672.75;5073192;27;96558;-73
2021/05/10 05:49:16;;;;;;;4.90;2.17;;;;;;;29.34;24.33;99671.84;5074292;27;97325;-73
2021/05/10 05:51:45;;;;;;;14.02;8.52;;;;;;;30.30;23.19;99664.34;5072751;27;97511;-72
2021/05/10 05:54:12;;;;;;;7.15;3.55;;;;;;;31.02;22.85;99668.59;5073609;27;101188;-73
2021/05/10 05:56:38;;;;;;;6.07;1.70;;;;;;;30.72;22.91;99665.28;5074083;27;96785;-71
2021/05/10 05:59:04;;;;;;;4.03;2.25;;;;;;;31.20;22.35;99650.97;5073414;27;96845;-73
2021/05/10 06:01:30;;;;;;;6.72;1.98;;;;;;;31.71;21.94;99650.53;5056481;27;100993;-74
2021/05/10 06:03:56;;;;;;;6.35;2.42;;;;;;;32.04;21.61;99652.47;5074272;27;97802;-73
2021/05/10 06:06:21;;;;;;;7.72;2.30;;;;;;;31.97;21.33;99641.59;5056802;27;96718;-74
2021/05/10 06:08:47;;;;;;;4.10;2.05;;;;;;;32.72;20.47;99638.66;5073353;27;96930;-74
2021/05/10 06:11:13;;;;;;;3.03;2.22;;;;;;;33.27;20.02;99637.22;5073761;27;97396;-74
2021/05/10 06:13:38;;;;;;;3.25;1.58;;;;;;;33.50;20.15;99625.78;5073979;27;97244;-74
2021/05/10 06:16:05;;;;;;;3.97;1.70;;;;;;;33.63;19.50;99624.06;5072394;27;96576;-74
2021/05/10 06:18:31;;;;;;;3.92;1.50;;;;;;;33.63;19.82;99627.66;5073901;27;96854;-74
2021/05/10 06:21:00;;;;;;;2.80;1.73;;;;;;;33.50;20.00;99624.97;5071937;27;97949;-73
2021/05/10 06:23:26;;;;;;;3.45;1.80;;;;;;;33.93;19.83;99627.84;5073445;27;97444;-73
2021/05/10 06:25:51;;;;;;;3.70;2.00;;;;;;;34.09;19.85;99617.47;5074322;27;97000;-75
2021/05/10 06:28:17;;;;;;;2.55;1.65;;;;;;;34.35;19.90;99622.69;5073531;27;97134;-73
2021/05/10 06:30:42;;;;;;;3.88;1.85;;;;;;;34.45;19.43;99620.28;5072215;27;98485;-73
2021/05/10 06:33:08;;;;;;;7.00;2.17;;;;;;;34.66;19.40;99629.94;5075017;27;97915;-73
2021/05/10 06:35:33;;;;;;;5.85;1.90;;;;;;;34.70;19.67;99622.13;5074896;27;96814;-73
2021/05/10 06:37:59;;;;;;;3.25;1.90;;;;;;;34.71;19.90;99610.19;5072739;27;97194;-73
2021/05/10 06:40:25;;;;;;;5.50;1.90;;;;;;;34.91;20.05;99618.16;5073684;27;97960;-73
2021/05/10 06:42:50;;;;;;;2.67;1.92;;;;;;;35.10;19.70;99600.72;5054732;27;99370;-73
2021/05/10 06:45:16;;;;;;;16.40;2.30;;;;;;;35.78;19.50;99615.09;5073227;27;96987;-73
2021/05/10 06:47:42;;;;;;;9.95;4.10;;;;;;;35.96;19.46;99619.66;5073378;27;97372;-71
2021/05/10 06:50:09;;;;;;;8.35;2.13;;;;;;;35.64;19.13;99624.56;5055247;27;101750;-73
2021/05/10 06:52:34;;;;;;;3.03;1.80;;;;;;;35.74;19.48;99625.66;5038714;27;102019;-73
2021/05/10 06:55:00;;;;;;;4.47;1.90;;;;;;;36.22;19.00;99637.53;5072739;27;97013;-73
2021/05/10 06:57:26;;;;;;;4.25;2.03;;;;;;;36.54;18.97;99650.84;5056601;27;96880;-73
2021/05/10 06:59:52;;;;;;;3.22;1.90;;;;;;;36.75;19.09;99638.47;5054884;27;101180;-73
2021/05/10 07:02:20;;;;;;;3.28;1.95;;;;;;;36.77;18.87;99637.19;5072830;27;98882;-73
2021/05/10 07:04:46;;;;;;;2.80;1.50;;;;;;;37.39;18.55;99640.09;5071450;27;96612;-73
2021/05/10 07:07:12;;;;;;;5.60;1.65;;;;;;;37.38;18.36;99630.25;5056095;27;96819;-73
2021/05/10 07:09:37;;;;;;;3.50;1.88;;;;;;;37.23;18.64;99634.56;5073157;27;97447;-73
2021/05/10 07:12:04;;;;;;;7.57;1.90;;;;;;;37.66;18.09;99625.00;5072297;27;97957;-73
2021/05/10 07:14:30;;;;;;;4.18;2.03;;;;;;;37.65;18.25;99631.56;5073049;27;96789;-73
2021/05/10 07:16:56;;;;;;;3.88;1.70;;;;;;;38.06;17.96;99644.06;5045951;27;96945;-72
2021/05/10 07:19:21;;;;;;;5.25;1.65;;;;;;;38.12;17.85;99632.13;5034589;27;99206;-73
2021/05/10 07:21:47;;;;;;;2.45;1.70;;;;;;;38.55;17.85;99640.75;5050399;27;97946;-71
2021/05/10 07:24:13;;;;;;;3.08;1.50;;;;;;;38.90;17.54;99640.44;5034842;27;96634;-73
2021/05/10 07:26:39;;;;;;;4.63;1.65;;;;;;;39.09;17.28;99644.50;5052400;27;96901;-73
2021/05/10 07:29:05;;;;;;;6.75;2.00;;;;;;;39.39;17.54;99640.50;5033563;27;100852;-74
2021/05/10 07:31:31;;;;;;;5.70;1.80;;;;;;;39.54;17.38;99653.53;5035319;27;99326;-73
2021/05/10 07:33:56;;;;;;;2.60;1.73;;;;;;;39.93;16.22;99648.72;5051348;27;99283;-73
2021/05/10 07:36:22;;;;;;;3.50;1.60;;;;;;;39.71;16.61;99653.41;5071101;27;97382;-73
2021/05/10 07:38:48;;;;;;;4.10;1.88;;;;;;;39.79;16.06;99655.72;5054413;27;97896;-70
2021/05/10 07:41:14;;;;;;;4.13;1.65;;;;;;;39.60;16.61;99638.78;5073972;27;98312;-74
2021/05/10 07:43:40;;;;;;;3.90;1.60;;;;;;;39.53;16.48;99638.13;5093486;27;97067;-73
2021/05/10 07:46:05;;;;;;;3.42;2.08;;;;;;;39.87;16.29;99625.03;5065966;27;96810;-74
2021/05/10 07:48:31;;;;;;;7.05;1.75;;;;;;;40.38;16.66;99633.69;5038618;27;101642;-75
2021/05/10 07:50:57;;;;;;;6.55;2.17;;;;;;;41.02;16.36;99635.44;5053987;27;100405;-92
2021/05/10 07:53:24;;;;;;;3.13;1.90;;;;;;;41.36;16.10;99629.50;5054901;27;97250;-83
2021/05/10 07:55:50;;;;;;;4.03;3.15;;;;;;;41.30;16.23;99619.56;5059092;27;96888;-85
2021/05/10 07:58:26;;;;;;;3.85;1.73;;;;;;;40.60;16.51;99616.22;5072019;27;101519;-84
2021/05/10 08:01:02;;;;;;;4.20;1.75;;;;;;;40.35;16.76;99627.88;5048709;27;101963;-83
2021/05/10 08:03:29;;;;;;;3.22;1.70;;;;;;;40.46;16.76;99608.44;5052835;27;97406;-81
2021/05/10 08:05:55;;;;;;;5.95;2.00;;;;;;;40.71;16.70;99605.03;5061160;27;96773;-81
2021/05/10 08:08:24;;;;;;;5.57;2.33;;;;;;;40.45;16.79;99595.78;5038105;27;101499;-81
2021/05/10 08:10:50;;;;;;;3.30;1.90;;;;;;;40.32;16.73;99611.91;5072067;27;98550;-79
2021/05/10 08:13:16;;;;;;;2.35;1.55;;;;;;;40.04;17.31;99617.47;5053465;27;97042;-81
2021/05/10 08:15:43;;;;;;;5.00;1.70;;;;;;;39.54;17.62;99610.44;5046901;27;96829;-80
2021/05/10 08:18:09;;;;;;;5.55;1.65;;;;;;;39.19;17.72;99604.56;5048881;27;98621;-80
2021/05/10 08:20:35;;;;;;;3.13;1.80;;;;;;;39.44;17.89;99598.53;5048081;27;101706;-81
2021/05/10 08:23:01;;;;;;;4.65;1.67;;;;;;;39.22;17.68;99604.03;5048866;27;97384;-81
2021/05/10 08:25:27;;;;;;;6.35;1.98;;;;;;;39.07;18.13;99594.56;5051720;27;96719;-82
2021/05/10 08:27:53;;;;;;;1.70;1.42;;;;;;;39.44;18.70;99596.59;5052483;27;101401;-81
2021/05/10 08:30:19;;;;;;;3.05;1.40;;;;;;;39.16;18.57;99590.25;5090272;27;98276;-82
2021/05/10 08:32:45;;;;;;;2.78;1.55;;;;;;;38.88;18.86;99580.34;5054674;27;96839;-83
2021/05/10 08:35:11;;;;;;;5.30;1.88;;;;;;;38.82;19.09;99575.84;5054468;27;96853;-84
2021/05/10 08:37:37;;;;;;;5.55;2.30;;;;;;;38.88;19.22;99582.25;5046800;27;101558;-84
2021/05/10 08:40:04;;;;;;;3.55;2.00;;;;;;;38.93;18.68;99580.41;5042308;27;101314;-84
2021/05/10 08:42:30;;;;;;;7.63;1.52;;;;;;;38.62;17.53;99583.81;5046854;27;96877;-84
2021/05/10 08:44:57;;;;;;;5.78;1.50;;;;;;;38.23;17.86;99584.63;5050488;27;97226;-82
2021/05/10 08:47:31;;;;;;;6.38;1.70;;;;;;;37.97;18.10;99588.06;5054192;27;100941;-83
2021/05/10 08:49:57;;;;;;;3.10;1.50;;;;;;;37.08;18.66;99592.16;5034331;27;101355;-83
2021/05/10 08:52:23;;;;;;;2.33;1.40;;;;;;;36.42;18.66;99585.25;5051581;27;97147;-83
2021/05/10 08:54:49;;;;;;;6.00;1.30;;;;;;;35.95;18.92;99596.13;5051250;27;97687;-84
2021/05/10 08:57:15;;;;;;;5.88;4.78;;;;;;;35.42;19.47;99586.03;5056833;27;101989;-83
2021/05/10 08:59:43;;;;;;;15.23;13.73;;;;;;;35.02;20.00;99571.00;5057324;27;101312;-83
2021/05/10 09:02:09;;;;;;;7.38;3.63;;;;;;;34.54;20.09;99579.97;5056332;27;97514;-84
2021/05/10 09:04:35;;;;;;;5.15;1.48;;;;;;;33.46;21.08;99583.78;5035842;27;97713;-83
2021/05/10 09:07:15;;;;;;;9.85;1.42;;;;;;;33.00;21.84;99589.47;5048811;27;98026;-83
2021/05/10 09:09:58;;;;;;;4.63;1.58;;;;;;;32.56;22.36;99585.63;5046584;27;97412;-82
2021/05/10 09:12:44;;;;;;;7.13;1.50;;;;;;;32.27;22.80;99565.19;5058810;27;97491;-81
2021/05/10 09:15:23;;;;;;;13.07;11.80;;;;;;;31.96;23.18;99570.22;5070251;27;97472;-84
2021/05/10 09:17:55;;;;;;;10.65;8.48;;;;;;;31.78;22.99;99561.84;5072134;27;97995;-76
2021/05/10 09:20:47;;;;;;;10.95;2.13;;;;;;;31.49;23.26;99547.63;5056202;27;101128;-81
2021/05/10 09:23:14;;;;;;;4.75;1.63;;;;;;;31.58;23.66;99550.97;5035685;27;97119;-80
2021/05/10 09:25:44;;;;;;;5.95;1.45;;;;;;;31.47;24.39;99554.28;5035564;27;96932;-81
2021/05/10 09:28:10;;;;;;;3.70;1.58;;;;;;;31.44;24.12;99547.41;5047004;27;102577;-80
2021/05/10 09:30:36;;;;;;;5.32;1.60;;;;;;;31.18;24.37;99548.16;5046721;27;101492;-80
2021/05/10 09:33:02;;;;;;;3.92;1.73;;;;;;;31.23;24.62;99561.94;5050377;27;97161;-80
2021/05/10 09:35:29;;;;;;;6.00;2.28;;;;;;;30.93;25.08;99553.31;5055317;27;96952;-81
2021/05/10 09:38:00;;;;;;;4.80;2.15;;;;;;;30.71;25.05;99557.97;5053581;27;98316;-80
2021/05/10 09:40:28;;;;;;;5.53;2.00;;;;;;;30.66;25.28;99550.47;5072164;27;97886;-80
2021/05/10 09:42:58;;;;;;;3.95;1.65;;;;;;;30.41;25.23;99579.06;5062124;27;96904;-80
2021/05/10 09:45:35;;;;;;;2.63;1.52;;;;;;;30.25;26.34;99566.66;5055102;27;97019;-80
2021/05/10 09:48:07;;;;;;;4.88;4.35;;;;;;;30.26;26.05;99568.34;5058068;27;98067;-80
2021/05/10 09:50:34;;;;;;;5.72;2.42;;;;;;;30.18;26.24;99572.00;5075693;27;101630;-80
2021/05/10 09:53:01;;;;;;;4.78;2.42;;;;;;;29.92;26.57;99569.94;5058808;27;96674;-80
2021/05/10 09:55:52;;;;;;;5.10;2.13;;;;;;;29.80;26.26;99563.38;5074079;27;98201;-80
2021/05/10 09:58:18;;;;;;;13.27;8.35;;;;;;;29.61;27.31;99559.44;5044011;27;98930;-80
2021/05/10 10:00:44;;;;;;;15.65;12.07;;;;;;;29.64;27.67;99567.22;5074867;27;98000;-80
2021/05/10 10:03:25;;;;;;;13.85;12.05;;;;;;;29.64;27.09;99566.34;5057620;27;97105;-80
2021/05/10 10:05:52;;;;;;;13.13;11.88;;;;;;;29.63;27.42;99573.63;5074758;27;97145;-80
2021/05/10 10:08:18;;;;;;;13.65;10.57;;;;;;;29.47;27.71;99574.72;5057254;27;101559;-79
2021/05/10 10:10:44;;;;;;;7.68;4.72;;;;;;;29.43;27.50;99583.38;5057273;27;100955;-79
2021/05/10 10:13:10;;;;;;;4.80;2.25;;;;;;;29.26;27.39;99580.06;5053993;27;97324;-79
2021/05/10 10:15:35;;;;;;;5.70;1.95;;;;;;;29.15;27.39;99594.94;5056237;27;96726;-79
2021/05/10 10:18:03;;;;;;;11.02;10.00;;;;;;;28.86;27.80;99585.84;5042120;27;101298;-79
2021/05/10 10:20:29;;;;;;;6.20;4.55;;;;;;;28.69;28.45;99570.84;5055334;27;101337;-79
2021/05/10 10:22:55;;;;;;;5.93;5.30;;;;;;;28.66;28.18;99566.66;5037367;27;96749;-79
2021/05/10 10:25:21;;;;;;;7.40;3.65;;;;;;;28.66;27.86;99576.63;5071912;27;96793;-79
2021/05/10 10:27:48;;;;;;;11.93;9.90;;;;;;;28.41;28.09;99585.00;5059187;27;101221;-79
2021/05/10 10:30:15;;;;;;;5.18;2.00;;;;;;;28.31;28.07;99587.13;5075093;27;97882;-79
2021/05/10 10:32:41;;;;;;;11.82;10.73;;;;;;;28.34;28.70;99583.22;5075917;27;96771;-78
2021/05/10 10:35:09;;;;;;;6.05;3.22;;;;;;;28.38;28.60;99582.63;5021853;27;97202;-79
2021/05/10 10:37:34;;;;;;;5.43;1.60;;;;;;;28.27;28.45;99593.88;5044177;27;101000;-79
2021/05/10 10:40:03;;;;;;;3.38;1.67;;;;;;;28.32;28.06;99583.38;5056838;27;100829;-78
2021/05/10 10:42:31;;;;;;;4.70;1.70;;;;;;;28.22;28.42;99574.72;5037118;27;97437;-78
2021/05/10 10:45:01;;;;;;;4.95;2.47;;;;;;;28.25;28.75;99581.63;5019948;27;97054;-78
2021/05/10 10:47:53;;;;;;;6.43;1.63;;;;;;;28.27;28.89;99583.09;5040315;27;100491;-79
2021/05/10 10:50:21;;;;;;;5.53;1.35;;;;;;;28.15;28.82;99581.88;5057322;27;99770;-78
2021/05/10 10:52:56;;;;;;;6.10;3.15;;;;;;;28.04;28.89;99579.63;5040573;27;97240;-72
2021/05/10 10:55:38;;;;;;;9.25;3.28;;;;;;;27.38;28.78;99569.34;5058917;27;96892;-81
2021/05/10 10:58:20;;;;;;;5.50;1.73;;;;;;;27.18;29.51;99592.38;5058646;27;101383;-81
2021/05/10 11:01:19;;;;;;;4.07;1.30;;;;;;;27.01;29.63;99578.13;5073370;27;101196;-85
2021/05/10 11:03:45;;;;;;;3.53;1.50;;;;;;;27.02;29.24;99590.56;5023804;27;96880;-83
2021/05/10 11:06:11;;;;;;;7.47;1.95;;;;;;;27.00;29.71;99579.97;5040159;27;97101;-84
2021/05/10 11:08:42;;;;;;;4.50;1.70;;;;;;;27.18;29.25;99589.69;5074045;27;98027;-84
2021/05/10 11:11:26;;;;;;;5.35;1.67;;;;;;;27.19;29.25;99591.34;5055352;27;101703;-83
2021/05/10 11:13:52;;;;;;;6.10;1.83;;;;;;;27.21;29.35;99600.09;5038963;27;96687;-84
2021/05/10 11:16:52;;;;;;;2.92;1.50;;;;;;;27.17;29.57;99585.28;5038902;27;96728;-84
2021/05/10 11:19:38;;;;;;;8.17;1.70;;;;;;;27.30;29.17;99593.63;5038967;27;100590;-84
2021/05/10 11:22:30;;;;;;;3.08;1.65;;;;;;;27.21;29.45;99589.31;5035524;27;102781;-84
2021/05/10 11:24:56;;;;;;;4.65;1.60;;;;;;;27.37;29.18;99585.66;5065899;27;96631;-84
2021/05/10 11:27:32;;;;;;;4.28;1.52;;;;;;;27.26;29.51;99589.63;5058393;27;96946;-78
2021/05/10 11:29:58;;;;;;;5.68;1.60;;;;;;;27.12;29.80;99590.34;5059525;27;101268;-83
2021/05/10 11:32:26;;;;;;;4.97;1.95;;;;;;;26.92;30.36;99584.56;5059932;27;99710;-82
2021/05/10 11:34:51;;;;;;;4.22;2.38;;;;;;;26.93;30.68;99583.53;5059614;27;96849;-82